createdAt,value
2022-12-06T00:04:25.354Z,96868.78
2022-12-06T00:09:29.949Z,96877.47
2022-12-06T00:14:34.196Z,96874.13
2022-12-06T00:19:37.076Z,96884.47
2022-12-06T00:24:39.996Z,96876.75
2022-12-06T00:29:44.234Z,96884.47
2022-12-06T00:34:47.266Z,96890.59
2022-12-06T00:39:50.248Z,96918.88
2022-12-06T00:44:54.482Z,96939.66
2022-12-06T00:49:57.683Z,96971.72
2022-12-06T00:55:00.936Z,97006.97
2022-12-06T01:00:06.130Z,97048.47
2022-12-06T01:05:09.816Z,97095.88
2022-12-06T01:10:13.106Z,97169.31
2022-12-06T01:15:17.639Z,97212.81
2022-12-06T01:20:20.423Z,97261.03
2022-12-06T01:25:25.885Z,97266.31
2022-12-06T01:30:30.473Z,97370.84
2022-12-06T01:35:33.218Z,97504.66
2022-12-06T01:40:38.756Z,97642.88
2022-12-06T01:45:43.059Z,97733.66
2022-12-06T01:50:45.828Z,97750.28
2022-12-06T01:55:48.728Z,97916.25
2022-12-06T02:00:53.035Z,98083.59
2022-12-06T02:05:56.420Z,98271.16
2022-12-06T02:10:59.921Z,98417.91
2022-12-06T02:16:22.599Z,98585.53
2022-12-06T02:21:32.074Z,98756.44
2022-12-06T02:26:38.890Z,98912.88
2022-12-06T02:31:44.034Z,98652.81
2022-12-06T02:36:50.128Z,98410.38
2022-12-06T02:41:57.428Z,98563.97
2022-12-06T02:47:02.633Z,98800.91
2022-12-06T02:52:05.738Z,99005.75
2022-12-06T02:57:08.485Z,99165.38
2022-12-06T03:02:12.765Z,99343.66
2022-12-06T03:07:36.435Z,99518.53
2022-12-06T03:12:44.930Z,99684.63
2022-12-06T03:17:52.794Z,99801.50
2022-12-06T03:22:59.688Z,99997.59
2022-12-06T03:28:04.688Z,100145.34
2022-12-06T03:33:08.858Z,100301.72
2022-12-06T03:38:19.669Z,100446.78
2022-12-06T03:43:22.404Z,100579.09
2022-12-06T03:48:28.655Z,100733.59
2022-12-06T03:53:31.383Z,100837.59
2022-12-06T03:58:34.134Z,100928.78
2022-12-06T04:03:38.225Z,100979.13
2022-12-06T04:08:41.148Z,101078.63
2022-12-06T04:13:43.862Z,101492.69
2022-12-06T04:18:48.639Z,101694.94
2022-12-06T04:23:52.767Z,101846.03
2022-12-06T04:29:13.505Z,101925.72
2022-12-06T04:34:35.433Z,102061.13
2022-12-06T04:39:38.450Z,102128.13
2022-12-06T04:44:41.435Z,102283.38
2022-12-06T04:49:45.553Z,102401.44
2022-12-06T04:54:48.377Z,102457.78
2022-12-06T04:59:51.145Z,102597.19
2022-12-06T05:04:55.234Z,102679.56
2022-12-06T05:09:58.433Z,102734.25
2022-12-06T05:15:01.358Z,102577.94
2022-12-06T05:20:06.807Z,102665.84
2022-12-06T05:25:10.292Z,102689.22
2022-12-06T05:30:13.847Z,102759.63
2022-12-06T05:35:18.071Z,102831.03
2022-12-06T05:40:20.888Z,102879.44
2022-12-06T05:45:23.702Z,102883.53
2022-12-06T05:50:27.753Z,102871.66
2022-12-06T05:55:30.488Z,102869.22
2022-12-06T06:00:33.578Z,102827.34
2022-12-06T06:05:38.777Z,102820.31
2022-12-06T06:10:41.570Z,102901.69
2022-12-06T06:15:44.301Z,102927.25
2022-12-06T06:20:51.670Z,102947.28
2022-12-06T06:25:54.709Z,103045.94
2022-12-06T06:30:58.511Z,103043.16
2022-12-06T06:36:02.672Z,102982.88
2022-12-06T06:41:06.232Z,102986.59
2022-12-06T06:46:09.095Z,103024.06
2022-12-06T06:51:14.731Z,103034.25
2022-12-06T06:56:17.463Z,103022.94
2022-12-06T07:01:24.897Z,103002.91
2022-12-06T07:06:29.064Z,103037.78
2022-12-06T07:11:31.883Z,103152.72
2022-12-06T07:16:34.668Z,103875.97
2022-12-06T07:21:38.818Z,104540.06
2022-12-06T07:26:41.628Z,104750.91
2022-12-06T07:31:44.354Z,104745.19
2022-12-06T07:36:48.529Z,104598.06
2022-12-06T07:42:08.635Z,104378.91
2022-12-06T07:47:17.801Z,104070.84
2022-12-06T07:52:22.028Z,103916.00
2022-12-06T07:57:24.931Z,103754.41
2022-12-06T08:02:28.517Z,103658.63
2022-12-06T08:07:32.679Z,103627.88
2022-12-06T08:12:35.458Z,103597.88
2022-12-06T08:17:38.233Z,103604.94
2022-12-06T08:22:42.568Z,103660.22
2022-12-06T08:27:45.326Z,103723.72
2022-12-06T08:32:48.303Z,103755.69
2022-12-06T08:37:52.451Z,103785.94
2022-12-06T08:42:55.212Z,103800.69
2022-12-06T08:47:57.959Z,103826.88
2022-12-06T08:53:02.011Z,103885.19
2022-12-06T08:58:04.760Z,103891.72
2022-12-06T09:03:07.480Z,103871.03
2022-12-06T09:08:11.664Z,103891.44
2022-12-06T09:13:14.406Z,103946.03
2022-12-06T09:18:17.167Z,103968.69
2022-12-06T09:23:21.273Z,104000.50
2022-12-06T09:28:24.008Z,104012.44
2022-12-06T09:33:27.419Z,104024.41
2022-12-06T09:38:32.629Z,104032.63
2022-12-06T09:43:46.961Z,104017.94
2022-12-06T09:49:13.335Z,103999.00
2022-12-06T09:54:21.381Z,104022.41
2022-12-06T09:59:28.327Z,104019.81
2022-12-06T10:04:47.447Z,103949.41
2022-12-06T10:10:05.312Z,104006.72
2022-12-06T10:15:17.019Z,104019.00
2022-12-06T10:20:29.110Z,104062.69
2022-12-06T10:25:36.925Z,104054.03
2022-12-06T10:30:46.890Z,104074.75
2022-12-06T10:35:54.268Z,104087.94
2022-12-06T10:41:13.123Z,104121.34
2022-12-06T10:46:38.677Z,104102.28
2022-12-06T10:51:44.075Z,104082.50
2022-12-06T10:56:50.291Z,104110.91
2022-12-06T11:01:54.216Z,104115.47
2022-12-06T11:06:59.717Z,104140.84
2022-12-06T11:12:05.036Z,104116.78
2022-12-06T11:17:14.444Z,104086.72
2022-12-06T11:22:23.883Z,104066.72
2022-12-06T11:27:34.586Z,104051.84
2022-12-06T11:32:37.345Z,104011.69
2022-12-06T11:37:44.239Z,104045.00
2022-12-06T11:42:48.664Z,104049.16
2022-12-06T11:47:54.234Z,104063.53
2022-12-06T11:52:59.743Z,103998.84
2022-12-06T11:58:08.010Z,104011.06
2022-12-06T12:03:28.826Z,103973.53
2022-12-06T12:08:32.901Z,103985.47
2022-12-06T12:13:46.548Z,104101.25
2022-12-06T12:18:55.931Z,104127.31
2022-12-06T12:23:58.690Z,104102.34
2022-12-06T12:29:15.447Z,103131.38
2022-12-06T12:34:21.271Z,104382.63
2022-12-06T12:39:26.545Z,104483.63
2022-12-06T12:44:38.511Z,104417.13
2022-12-06T12:49:42.039Z,104349.56
2022-12-06T12:54:59.969Z,104409.00
2022-12-06T13:00:05.078Z,104416.81
2022-12-06T13:05:32.104Z,104387.19
2022-12-06T13:10:38.056Z,104364.19
2022-12-06T13:15:47.106Z,104443.81
2022-12-06T13:20:51.655Z,104422.97
2022-12-06T13:26:04.867Z,104384.50
2022-12-06T13:31:13.371Z,104312.38
2022-12-06T13:36:17.128Z,104298.84
2022-12-06T13:42:12.645Z,104298.13
2022-12-06T13:47:40.323Z,104294.25
2022-12-06T13:53:01.631Z,104247.19
2022-12-06T13:58:37.385Z,104203.03
2022-12-06T14:03:42.126Z,102999.78
2022-12-06T14:08:46.814Z,104249.75
2022-12-06T14:13:59.699Z,104538.47
2022-12-06T14:19:17.045Z,104776.16
2022-12-06T14:24:38.148Z,104753.34
2022-12-06T14:29:41.744Z,104690.34
2022-12-06T14:34:48.479Z,104511.34
2022-12-06T14:39:53.009Z,104455.19
2022-12-06T14:45:01.986Z,104451.09
2022-12-06T14:50:25.917Z,104317.81
2022-12-06T14:55:31.817Z,104312.38
2022-12-06T15:00:36.900Z,104272.38
2022-12-06T15:05:43.725Z,104296.75
2022-12-06T15:10:55.458Z,104241.56
2022-12-06T15:16:12.786Z,104298.75
2022-12-06T15:21:18.467Z,104362.59
2022-12-06T15:26:22.780Z,104358.78
2022-12-06T15:31:27.824Z,104455.63
2022-12-06T15:36:34.588Z,104527.84
2022-12-06T15:41:38.384Z,104560.03
2022-12-06T15:46:41.653Z,104537.78
2022-12-06T15:51:46.546Z,104538.50
2022-12-06T15:56:49.494Z,104551.75
2022-12-06T16:01:52.305Z,104285.84
2022-12-06T16:06:56.475Z,104559.75
2022-12-06T16:11:59.188Z,104591.44
2022-12-06T16:17:01.868Z,104601.88
2022-12-06T16:22:05.919Z,104599.69
2022-12-06T16:27:08.882Z,104606.34
2022-12-06T16:32:11.614Z,104582.78
2022-12-06T16:37:15.759Z,104581.34
2022-12-06T16:42:18.441Z,104577.63
2022-12-06T16:52:24.107Z,104316.88
2022-12-06T16:57:26.916Z,104602.91
2022-12-06T17:02:31.044Z,104608.91
2022-12-06T17:07:35.767Z,104609.91
2022-12-06T17:12:38.548Z,104629.03
2022-12-06T17:17:41.432Z,104622.72
2022-12-06T17:22:45.623Z,104641.44
2022-12-06T17:27:49.512Z,104666.56
2022-12-06T17:32:53.328Z,104682.72
2022-12-06T17:37:57.484Z,104645.84
2022-12-06T17:43:00.278Z,104500.00
2022-12-06T17:48:02.998Z,104566.97
2022-12-06T17:53:07.326Z,104671.16
2022-12-06T17:58:10.400Z,104641.78
2022-12-06T18:03:13.252Z,104697.34
2022-12-06T18:08:17.562Z,104695.94
2022-12-06T18:13:20.370Z,104689.38
2022-12-06T18:18:24.194Z,104690.09
2022-12-06T18:23:28.248Z,104717.69
2022-12-06T18:28:31.252Z,104747.28
2022-12-06T18:33:34.474Z,104754.16
2022-12-06T18:38:38.549Z,104752.75
2022-12-06T18:43:41.724Z,104764.56
2022-12-06T18:48:46.406Z,104768.38
2022-12-06T18:53:51.471Z,104766.94
2022-12-06T18:58:54.314Z,104754.66
2022-12-06T19:03:59.501Z,104656.47
2022-12-06T19:09:06.023Z,104749.25
2022-12-06T19:14:11.217Z,104737.69
2022-12-06T19:19:17.132Z,104716.78
2022-12-06T19:24:22.118Z,104688.34
2022-12-06T19:29:25.171Z,104670.31
2022-12-06T19:34:29.316Z,104689.47
2022-12-06T19:39:33.862Z,104711.44
2022-12-06T19:44:36.578Z,104756.13
2022-12-06T19:49:39.445Z,104767.25
2022-12-06T19:54:47.465Z,104803.84
2022-12-06T19:59:52.634Z,104839.59
2022-12-06T20:04:55.396Z,104851.03
2022-12-06T20:09:59.879Z,104846.47
2022-12-06T20:15:02.806Z,104863.22
2022-12-06T20:20:07.110Z,104812.13
2022-12-06T20:25:11.588Z,104610.56
2022-12-06T20:30:17.532Z,104709.09
2022-12-06T20:35:20.175Z,104773.94
2022-12-06T20:40:31.102Z,104698.69
2022-12-06T20:45:34.217Z,104862.28
2022-12-06T20:50:39.609Z,104881.16
2022-12-06T20:55:43.731Z,104930.44
2022-12-06T21:00:47.502Z,104899.88
2022-12-06T21:05:55.217Z,104883.94
2022-12-06T21:11:22.146Z,104833.72
2022-12-06T21:16:24.783Z,104799.34
2022-12-06T21:21:29.011Z,104747.03
2022-12-06T21:26:33.384Z,104705.13
2022-12-06T21:31:38.228Z,104689.66
2022-12-06T21:36:41.300Z,104650.78
2022-12-06T21:41:45.785Z,104611.72
2022-12-06T21:46:52.150Z,104456.53
2022-12-06T21:52:01.030Z,104421.91
2022-12-06T21:57:06.274Z,104243.28
2022-12-06T22:02:10.310Z,104238.69
2022-12-06T22:07:13.217Z,104185.44
2022-12-06T22:12:17.285Z,104205.34
2022-12-06T22:17:20.035Z,104241.91
2022-12-06T22:22:23.535Z,104197.63
2022-12-06T22:27:27.577Z,104186.47
2022-12-06T22:32:30.284Z,104102.34
2022-12-06T22:37:32.991Z,104039.25
2022-12-06T22:42:37.072Z,104039.84
2022-12-06T22:47:39.784Z,104027.78
2022-12-06T22:52:42.488Z,104035.59
2022-12-06T22:57:46.538Z,103892.28
2022-12-06T23:02:49.566Z,103976.97
2022-12-06T23:07:52.426Z,103913.88
2022-12-06T23:12:56.569Z,103694.03
2022-12-06T23:17:59.247Z,103585.31
2022-12-06T23:23:01.929Z,104257.09
2022-12-06T23:28:06.003Z,104353.94
2022-12-06T23:33:08.760Z,104329.94
2022-12-06T23:38:11.458Z,104167.03
2022-12-06T23:43:15.493Z,104214.34
2022-12-06T23:48:18.211Z,104193.94
2022-12-06T23:53:20.894Z,104182.97
2022-12-06T23:58:24.986Z,104203.28
